Time,TemperatureF,DewpointF,PressureIn,WindDirection,WindDirectionDegrees,WindSpeedMPH,WindSpeedGustMPH,Humidity,HourlyPrecipIn,Conditions,Clouds,dailyrainin,SoftwareType,DateUTC
2013-06-02 00:00:00,58.7,52.2,30.01,WNW,298,4.0,8.0,79,0.00,,FEW150,0.03,VWS V14.01,2013-06-02 05:00:00,
2013-06-02 00:01:00,58.7,52.2,30.01,North,3,5.0,8.0,79,0.00,,CLR,0.03,VWS V14.01,2013-06-02 05:01:00,
2013-06-02 00:05:00,58.6,52.1,30.01,NW,316,7.0,10.0,79,0.00,,CLR,0.00,VWS V14.01,2013-06-02 05:05:00,
2013-06-02 00:10:00,58.6,51.8,30.01,NE,39,3.0,8.0,78,0.00,,CLR,0.00,VWS V14.01,2013-06-02 05:10:00,
2013-06-02 00:15:00,58.6,51.8,30.01,NW,311,4.0,11.0,78,0.00,,CLR,0.00,VWS V14.01,2013-06-02 05:15:00,
2013-06-02 00:20:00,58.5,51.7,30.01,NW,311,4.0,7.0,78,0.00,,CLR,0.00,VWS V14.01,2013-06-02 05:20:00,
2013-06-02 00:25:00,58.4,51.6,30.01,NW,324,3.0,8.0,78,0.00,,CLR,0.00,VWS V14.01,2013-06-02 05:25:00,
2013-06-02 00:30:00,58.3,51.5,30.01,NNW,348,2.0,8.0,78,0.00,,CLR,0.00,VWS V14.01,2013-06-02 05:30:00,
2013-06-02 00:35:00,58.2,51.4,30.01,NW,316,2.0,7.0,78,0.00,,CLR,0.00,VWS V14.01,2013-06-02 05:35:00,
2013-06-02 00:40:00,58.1,51.3,30.01,NNW,330,4.0,5.0,78,0.00,,CLR,0.00,VWS V14.01,2013-06-02 05:40:00,
2013-06-02 00:45:00,57.9,51.1,30.01,NW,321,4.0,6.0,78,0.00,,CLR,0.00,VWS V14.01,2013-06-02 05:45:00,
2013-06-02 00:50:00,57.7,51.2,30.01,NNW,331,3.0,5.0,79,0.00,,CLR,0.00,VWS V14.01,2013-06-02 05:50:00,
2013-06-02 00:55:00,57.5,51.0,30.02,NNW,329,2.0,6.0,79,0.00,,CLR,0.00,VWS V14.01,2013-06-02 05:55:00,
2013-06-02 01:00:00,57.3,51.2,30.01,NW,324,3.0,5.0,80,0.00,,CLR,0.00,VWS V14.01,2013-06-02 06:00:00,
2013-06-02 01:05:00,57.1,51.0,30.01,NW,319,2.0,5.0,80,0.00,,CLR,0.00,VWS V14.01,2013-06-02 06:05:00,
2013-06-02 01:10:00,56.8,51.0,30.02,NNW,338,2.0,5.0,81,0.00,,CLR,0.00,VWS V14.01,2013-06-02 06:10:00,
2013-06-02 01:15:00,56.5,50.8,30.01,NNW,335,3.0,5.0,81,0.00,,CLR,0.00,VWS V14.01,2013-06-02 06:15:00,
2013-06-02 01:20:00,56.2,50.8,30.01,NW,311,4.0,7.0,82,0.00,,CLR,0.00,VWS V14.01,2013-06-02 06:20:00,
2013-06-02 01:25:00,55.8,50.7,30.01,NNE,20,3.0,7.0,83,0.00,,CLR,0.00,VWS V14.01,2013-06-02 06:25:00,
2013-06-02 01:30:00,55.6,50.8,30.01,NNE,16,2.0,7.0,84,0.00,,CLR,0.00,VWS V14.01,2013-06-02 06:30:00,
2013-06-02 01:35:00,55.3,50.6,30.01,NNW,343,3.0,5.0,84,0.00,,CLR,0.00,VWS V14.01,2013-06-02 06:35:00,
2013-06-02 01:40:00,55.2,50.8,30.01,NW,304,3.0,5.0,85,0.00,,CLR,0.00,VWS V14.01,2013-06-02 06:40:00,
2013-06-02 01:45:00,55.0,50.6,30.01,NW,315,2.0,5.0,85,0.00,,CLR,0.00,VWS V14.01,2013-06-02 06:45:00,
2013-06-02 01:50:00,55.0,50.9,30.01,NNW,333,1.0,6.0,86,0.00,,CLR,0.00,VWS V14.01,2013-06-02 06:50:00,
2013-06-02 01:55:00,54.9,50.5,30.01,NW,307,1.0,4.0,85,0.00,,CLR,0.00,VWS V14.01,2013-06-02 06:55:00,
2013-06-02 02:00:00,54.9,50.5,30.01,NNW,335,2.0,5.0,85,0.00,,CLR,0.00,VWS V14.01,2013-06-02 07:00:00,
2013-06-02 02:05:00,54.9,50.5,30.02,NW,309,1.0,6.0,85,0.00,,CLR,0.00,VWS V14.01,2013-06-02 07:05:00,
2013-06-02 02:10:00,55.0,50.6,30.02,West,260,2.0,4.0,85,0.00,,CLR,0.00,VWS V14.01,2013-06-02 07:10:00,
2013-06-02 02:15:00,55.1,50.4,30.02,NNW,336,3.0,7.0,84,0.00,,CLR,0.00,VWS V14.01,2013-06-02 07:15:00,
2013-06-02 02:20:00,55.2,50.1,30.02,NNW,331,3.0,5.0,83,0.00,,CLR,0.00,VWS V14.01,2013-06-02 07:20:00,
2013-06-02 02:25:00,55.2,50.1,30.02,NNW,331,3.0,4.0,83,0.00,,CLR,0.00,VWS V14.01,2013-06-02 07:25:00,
2013-06-02 02:30:00,55.1,50.0,30.02,NW,316,5.0,9.0,83,0.00,,CLR,0.00,VWS V14.01,2013-06-02 07:30:00,
2013-06-02 02:35:00,55.1,50.0,30.02,NW,319,4.0,7.0,83,0.00,,CLR,0.00,VWS V14.01,2013-06-02 07:35:00,
2013-06-02 02:40:00,55.0,49.9,30.02,NW,324,3.0,8.0,83,0.00,,CLR,0.00,VWS V14.01,2013-06-02 07:40:00,
2013-06-02 02:45:00,55.0,49.9,30.02,NW,326,5.0,9.0,83,0.00,,CLR,0.00,VWS V14.01,2013-06-02 07:45:00,
2013-06-02 02:50:00,55.0,49.9,30.02,NNW,343,4.0,10.0,83,0.00,,CLR,0.00,VWS V14.01,2013-06-02 07:50:00,
2013-06-02 02:55:00,54.9,49.8,30.02,NW,324,5.0,8.0,83,0.00,,CLR,0.00,VWS V14.01,2013-06-02 07:55:00,
2013-06-02 03:00:00,54.7,49.7,30.02,NNW,331,2.0,10.0,83,0.00,,CLR,0.00,VWS V14.01,2013-06-02 08:00:00,
2013-06-02 03:05:00,54.5,49.5,30.02,NW,319,5.0,9.0,83,0.00,,CLR,0.00,VWS V14.01,2013-06-02 08:05:00,
2013-06-02 03:10:00,54.4,49.3,30.02,NW,319,5.0,7.0,83,0.00,,CLR,0.00,VWS V14.01,2013-06-02 08:10:00,
2013-06-02 03:15:00,54.2,49.5,30.03,NW,319,4.0,10.0,84,0.00,,CLR,0.00,VWS V14.01,2013-06-02 08:15:00,
2013-06-02 03:20:00,54.1,49.4,30.03,North,6,8.0,8.0,84,0.00,,CLR,0.00,VWS V14.01,2013-06-02 08:20:00,
2013-06-02 03:25:00,54.0,49.3,30.03,NNW,347,2.0,8.0,84,0.00,,CLR,0.00,VWS V14.01,2013-06-02 08:25:00,
2013-06-02 03:30:00,53.9,49.5,30.03,NNW,329,5.0,7.0,85,0.00,,CLR,0.00,VWS V14.01,2013-06-02 08:30:00,
2013-06-02 03:35:00,54.0,49.6,30.04,NW,308,2.0,5.0,85,0.00,,CLR,0.00,VWS V14.01,2013-06-02 08:35:00,
2013-06-02 03:40:00,53.9,49.5,30.03,NE,40,4.0,5.0,85,0.00,,CLR,0.00,VWS V14.01,2013-06-02 08:40:00,
2013-06-02 03:45:00,53.7,49.3,30.03,NW,310,3.0,8.0,85,0.00,,CLR,0.00,VWS V14.01,2013-06-02 08:45:00,
2013-06-02 03:50:00,53.7,49.3,30.02,NW,309,5.0,7.0,85,0.00,,CLR,0.00,VWS V14.01,2013-06-02 08:50:00,
2013-06-02 03:55:00,53.6,49.2,30.01,NE,47,3.0,10.0,85,0.00,,CLR,0.00,VWS V14.01,2013-06-02 08:55:00,
2013-06-02 04:00:00,53.6,48.9,30.02,NNW,333,8.0,9.0,84,0.00,,CLR,0.00,VWS V14.01,2013-06-02 09:00:00,
2013-06-02 04:05:00,53.7,49.0,30.02,NNW,328,4.0,9.0,84,0.00,,CLR,0.00,VWS V14.01,2013-06-02 09:05:00,
2013-06-02 04:10:00,53.8,48.8,30.03,NNW,345,5.0,11.0,83,0.00,,CLR,0.00,VWS V14.01,2013-06-02 09:10:00,
2013-06-02 04:15:00,53.8,48.8,30.02,NNE,20,4.0,10.0,83,0.00,,CLR,0.00,VWS V14.01,2013-06-02 09:15:00,
2013-06-02 04:20:00,53.7,48.7,30.02,NW,324,3.0,8.0,83,0.00,,CLR,0.00,VWS V14.01,2013-06-02 09:20:00,
2013-06-02 04:25:00,53.7,48.7,30.02,NNW,335,2.0,10.0,83,0.00,,CLR,0.00,VWS V14.01,2013-06-02 09:25:00,
2013-06-02 04:30:00,53.6,48.6,30.02,NW,325,4.0,10.0,83,0.00,,CLR,0.00,VWS V14.01,2013-06-02 09:30:00,
2013-06-02 04:35:00,53.5,48.5,30.03,NW,316,4.0,9.0,83,0.00,,FEW050,0.00,VWS V14.01,2013-06-02 09:35:00,
2013-06-02 04:40:00,53.1,48.4,30.03,NW,324,4.0,8.0,84,0.00,,FEW050,0.00,VWS V14.01,2013-06-02 09:40:00,
2013-06-02 04:45:00,52.8,48.7,30.03,NNW,338,3.0,7.0,86,0.00,,FEW050,0.00,VWS V14.01,2013-06-02 09:45:00,
2013-06-02 04:50:00,52.4,48.3,30.04,NW,321,3.0,6.0,86,0.00,,FEW050,0.00,VWS V14.01,2013-06-02 09:50:00,
2013-06-02 04:55:00,52.3,48.5,30.04,NNE,15,3.0,7.0,87,0.00,,FEW050,0.00,VWS V14.01,2013-06-02 09:55:00,
2013-06-02 05:00:00,52.1,48.4,30.04,NW,319,1.0,6.0,87,0.00,,FEW050,0.00,VWS V14.01,2013-06-02 10:00:00,
2013-06-02 05:05:00,51.9,48.5,30.05,NNW,333,2.0,5.0,88,0.00,,FEW050,0.00,VWS V14.01,2013-06-02 10:05:00,
2013-06-02 05:10:00,51.9,48.5,30.05,NW,312,3.0,6.0,88,0.00,,FEW050,0.00,VWS V14.01,2013-06-02 10:10:00,
2013-06-02 05:15:00,51.7,48.3,30.05,NW,316,4.0,5.0,88,0.00,,FEW050,0.00,VWS V14.01,2013-06-02 10:15:00,
2013-06-02 05:20:00,51.7,48.3,30.05,NW,318,3.0,5.0,88,0.00,,FEW050,0.00,VWS V14.01,2013-06-02 10:20:00,
2013-06-02 05:25:00,51.6,48.2,30.05,NW,308,4.0,7.0,88,0.00,,FEW050,0.00,VWS V14.01,2013-06-02 10:25:00,
2013-06-02 05:30:00,51.5,48.1,30.05,NW,317,3.0,7.0,88,0.00,,FEW050,0.00,VWS V14.01,2013-06-02 10:30:00,
2013-06-02 05:35:00,51.3,47.9,30.05,NW,310,4.0,5.0,88,0.00,,CLR,0.00,VWS V14.01,2013-06-02 10:35:00,
2013-06-02 05:40:00,51.3,47.9,30.06,NNE,16,2.0,3.0,88,0.00,,CLR,0.00,VWS V14.01,2013-06-02 10:40:00,
2013-06-02 05:45:00,51.1,48.0,30.06,NW,314,2.0,4.0,89,0.00,,CLR,0.00,VWS V14.01,2013-06-02 10:45:00,
2013-06-02 05:50:00,51.1,48.0,30.06,NNW,333,4.0,5.0,89,0.00,,CLR,0.00,VWS V14.01,2013-06-02 10:50:00,
2013-06-02 05:55:00,51.0,47.9,30.06,NW,316,4.0,8.0,89,0.00,,CLR,0.00,VWS V14.01,2013-06-02 10:55:00,
2013-06-02 06:00:00,51.1,48.0,30.07,WSW,254,2.0,7.0,89,0.00,,CLR,0.00,VWS V14.01,2013-06-02 11:00:00,
2013-06-02 06:04:00,51.1,48.0,30.07,NNW,333,3.0,7.0,89,0.00,,CLR,0.00,VWS V14.01,2013-06-02 11:04:00,
2013-06-02 06:05:00,51.1,48.0,30.07,NNW,330,4.0,7.0,89,0.00,,FEW150,0.00,VWS V14.01,2013-06-02 11:05:00,
2013-06-02 06:09:00,51.1,48.0,30.07,NW,319,2.0,7.0,89,0.00,,CLR,0.00,VWS V14.01,2013-06-02 11:09:00,
2013-06-02 06:10:00,51.1,48.0,30.07,NW,324,3.0,7.0,89,0.00,,FEW150,0.00,VWS V14.01,2013-06-02 11:10:00,
2013-06-02 06:14:00,51.1,48.0,30.07,NW,317,5.0,7.0,89,0.00,,CLR,0.00,VWS V14.01,2013-06-02 11:14:00,
2013-06-02 06:15:00,51.1,48.0,30.07,NW,315,4.0,7.0,89,0.00,,FEW150,0.00,VWS V14.01,2013-06-02 11:15:00,
2013-06-02 06:19:00,51.0,47.9,30.07,NNW,327,4.0,7.0,89,0.00,,CLR,0.00,VWS V14.01,2013-06-02 11:19:00,
2013-06-02 06:20:00,51.0,47.9,30.07,NNW,348,2.0,7.0,89,0.00,,FEW150,0.00,VWS V14.01,2013-06-02 11:20:00,
2013-06-02 06:24:00,51.0,47.9,30.07,NW,307,0.0,6.0,89,0.00,,CLR,0.00,VWS V14.01,2013-06-02 11:24:00,
2013-06-02 06:25:00,51.0,47.9,30.07,NW,326,4.0,6.0,89,0.00,,FEW150,0.00,VWS V14.01,2013-06-02 11:25:00,
2013-06-02 06:29:00,51.0,47.9,30.07,NNW,340,2.0,8.0,89,0.00,,CLR,0.00,VWS V14.01,2013-06-02 11:29:00,
2013-06-02 06:30:00,51.0,47.9,30.07,NW,307,3.0,8.0,89,0.00,,FEW150,0.00,VWS V14.01,2013-06-02 11:30:00,
2013-06-02 06:34:00,51.0,47.9,30.06,North,354,3.0,7.0,89,0.00,,FEW050,0.00,VWS V14.01,2013-06-02 11:34:00,
2013-06-02 06:35:00,51.1,48.0,30.07,NW,311,3.0,7.0,89,0.00,,FEW150,0.00,VWS V14.01,2013-06-02 11:35:00,
2013-06-02 06:39:00,51.1,48.0,30.06,NNW,341,5.0,8.0,89,0.00,,FEW050,0.00,VWS V14.01,2013-06-02 11:39:00,
2013-06-02 06:40:00,51.1,48.0,30.06,NW,322,2.0,8.0,89,0.00,,FEW150,0.00,VWS V14.01,2013-06-02 11:40:00,
2013-06-02 06:44:00,51.1,48.0,30.07,NW,304,5.0,10.0,89,0.00,,FEW050,0.00,VWS V14.01,2013-06-02 11:44:00,
2013-06-02 06:45:00,51.2,48.1,30.06,NNW,338,3.0,10.0,89,0.00,,FEW150,0.00,VWS V14.01,2013-06-02 11:45:00,
2013-06-02 06:49:00,51.5,48.4,30.06,NW,321,3.0,8.0,89,0.00,,FEW050,0.00,VWS V14.01,2013-06-02 11:49:00,
2013-06-02 06:50:00,51.7,48.3,30.06,NW,304,3.0,8.0,88,0.00,,FEW150,0.00,VWS V14.01,2013-06-02 11:50:00,
2013-06-02 06:54:00,52.0,48.3,30.06,NW,308,6.0,9.0,87,0.00,,FEW050,0.00,VWS V14.01,2013-06-02 11:54:00,
2013-06-02 06:55:00,52.0,48.3,30.06,NW,317,2.0,9.0,87,0.00,,FEW150,0.00,VWS V14.01,2013-06-02 11:55:00,
2013-06-02 06:59:00,52.3,48.5,30.06,NNW,330,4.0,10.0,87,0.00,,FEW050,0.00,VWS V14.01,2013-06-02 11:59:00,
2013-06-02 07:00:00,52.3,48.5,30.06,NW,313,3.0,10.0,87,0.00,,FEW150,0.00,VWS V14.01,2013-06-02 12:00:00,
2013-06-02 07:04:00,52.5,48.4,30.06,NW,316,4.0,9.0,86,0.00,,FEW050,0.00,VWS V14.01,2013-06-02 12:04:00,
2013-06-02 07:05:00,52.6,48.5,30.07,NW,319,2.0,9.0,86,0.00,,FEW150,0.00,VWS V14.01,2013-06-02 12:05:00,
2013-06-02 07:09:00,52.8,48.4,30.07,NW,316,5.0,9.0,85,0.00,,FEW050,0.00,VWS V14.01,2013-06-02 12:09:00,
2013-06-02 07:10:00,52.8,48.4,30.07,NW,326,7.0,9.0,85,0.00,,FEW150,0.00,VWS V14.01,2013-06-02 12:10:00,
2013-06-02 07:14:00,52.9,48.5,30.07,NNW,338,3.0,10.0,85,0.00,,FEW050,0.00,VWS V14.01,2013-06-02 12:14:00,
2013-06-02 07:15:00,53.0,48.6,30.07,North,352,6.0,10.0,85,0.00,,FEW150,0.00,VWS V14.01,2013-06-02 12:15:00,
2013-06-02 07:19:00,53.2,48.8,30.07,NW,324,3.0,8.0,85,0.00,,FEW050,0.00,VWS V14.01,2013-06-02 12:19:00,
2013-06-02 07:20:00,53.3,48.9,30.07,NNW,347,3.0,8.0,85,0.00,,FEW150,0.00,VWS V14.01,2013-06-02 12:20:00,
2013-06-02 07:24:00,53.3,48.6,30.07,NW,315,3.0,11.0,84,0.00,,FEW050,0.00,VWS V14.01,2013-06-02 12:24:00,
2013-06-02 07:25:00,53.3,48.6,30.07,NW,319,3.0,11.0,84,0.00,,FEW150,0.00,VWS V14.01,2013-06-02 12:25:00,
2013-06-02 07:29:00,53.5,48.8,30.08,WNW,300,4.0,10.0,84,0.00,,FEW050,0.00,VWS V14.01,2013-06-02 12:29:00,
2013-06-02 07:30:00,53.5,48.8,30.08,NW,324,3.0,10.0,84,0.00,,FEW150,0.00,VWS V14.01,2013-06-02 12:30:00,
2013-06-02 07:34:00,53.6,48.9,30.08,NW,323,4.0,8.0,84,0.00,,CLR,0.00,VWS V14.01,2013-06-02 12:34:00,
2013-06-02 07:35:00,53.6,48.9,30.08,NW,321,7.0,8.0,84,0.00,,FEW150,0.00,VWS V14.01,2013-06-02 12:35:00,
2013-06-02 07:39:00,53.7,49.0,30.08,NE,35,4.0,10.0,84,0.00,,CLR,0.00,VWS V14.01,2013-06-02 12:39:00,
2013-06-02 07:40:00,53.8,49.1,30.08,NW,315,2.0,10.0,84,0.00,,FEW150,0.00,VWS V14.01,2013-06-02 12:40:00,
2013-06-02 07:44:00,53.8,48.8,30.08,NW,312,6.0,10.0,83,0.00,,CLR,0.00,VWS V14.01,2013-06-02 12:44:00,
2013-06-02 07:45:00,53.9,49.2,30.08,NW,311,3.0,10.0,84,0.00,,FEW150,0.00,VWS V14.01,2013-06-02 12:45:00,
2013-06-02 07:49:00,54.0,49.3,30.08,NW,315,2.0,7.0,84,0.00,,CLR,0.00,VWS V14.01,2013-06-02 12:49:00,
2013-06-02 07:50:00,54.0,49.0,30.08,NNW,345,7.0,11.0,83,0.00,,FEW150,0.00,VWS V14.01,2013-06-02 12:50:00,
2013-06-02 07:54:00,54.1,49.1,30.08,NW,320,1.0,11.0,83,0.00,,CLR,0.00,VWS V14.01,2013-06-02 12:54:00,
2013-06-02 07:55:00,54.2,49.2,30.08,NNW,338,4.0,12.0,83,0.00,,FEW150,0.00,VWS V14.01,2013-06-02 12:55:00,
2013-06-02 07:59:00,54.4,49.0,30.08,NNE,21,8.0,10.0,82,0.00,,CLR,0.00,VWS V14.01,2013-06-02 12:59:00,
2013-06-02 08:00:00,54.5,49.1,30.08,SW,224,2.0,10.0,82,0.00,,FEW150,0.00,VWS V14.01,2013-06-02 13:00:00,
2013-06-02 08:04:00,54.7,49.0,30.08,NW,316,2.0,9.0,81,0.00,,CLR,0.00,VWS V14.01,2013-06-02 13:04:00,
2013-06-02 08:05:00,54.8,49.1,30.09,NW,323,9.0,9.0,81,0.00,,FEW150,0.00,VWS V14.01,2013-06-02 13:05:00,
2013-06-02 08:09:00,55.0,49.3,30.09,NE,42,3.0,9.0,81,0.00,,CLR,0.00,VWS V14.01,2013-06-02 13:09:00,
2013-06-02 08:10:00,55.0,49.3,30.09,North,356,5.0,9.0,81,0.00,,FEW150,0.00,VWS V14.01,2013-06-02 13:10:00,
2013-06-02 08:14:00,55.4,49.3,30.09,NW,307,3.0,9.0,80,0.00,,CLR,0.00,VWS V14.01,2013-06-02 13:14:00,
2013-06-02 08:15:00,55.5,49.4,30.09,NNE,25,4.0,9.0,80,0.00,,FEW150,0.00,VWS V14.01,2013-06-02 13:15:00,
2013-06-02 08:19:00,55.6,49.5,30.09,North,6,2.0,10.0,80,0.00,,CLR,0.00,VWS V14.01,2013-06-02 13:19:00,
2013-06-02 08:20:00,55.7,49.6,30.09,West,277,2.0,10.0,80,0.00,,FEW150,0.00,VWS V14.01,2013-06-02 13:20:00,
2013-06-02 08:24:00,55.9,49.5,30.09,NW,315,3.0,11.0,79,0.00,,CLR,0.00,VWS V14.01,2013-06-02 13:24:00,
2013-06-02 08:25:00,56.0,49.6,30.09,NW,316,5.0,11.0,79,0.00,,FEW150,0.00,VWS V14.01,2013-06-02 13:25:00,
2013-06-02 08:29:00,56.1,49.0,30.09,NW,311,2.0,13.0,77,0.00,,CLR,0.00,VWS V14.01,2013-06-02 13:29:00,
2013-06-02 08:30:00,56.2,49.1,30.09,NW,318,5.0,13.0,77,0.00,,FEW150,0.00,VWS V14.01,2013-06-02 13:30:00,
2013-06-02 08:34:00,56.3,49.2,30.09,NW,310,6.0,13.0,77,0.00,,FEW150,0.00,VWS V14.01,2013-06-02 13:34:00,
2013-06-02 08:35:00,56.4,48.9,30.09,North,349,14.0,14.0,76,0.00,,FEW300,0.00,VWS V14.01,2013-06-02 13:35:00,
2013-06-02 08:39:00,56.6,49.1,30.09,NW,307,5.0,5.0,76,0.00,,FEW150,0.00,VWS V14.01,2013-06-02 13:39:00,
2013-06-02 08:40:00,56.6,48.8,30.09,NNW,338,5.0,10.0,75,0.00,,FEW300,0.00,VWS V14.01,2013-06-02 13:40:00,
2013-06-02 08:44:00,56.7,48.9,30.09,NNE,15,10.0,14.0,75,0.00,,FEW150,0.00,VWS V14.01,2013-06-02 13:44:00,
2013-06-02 08:45:00,56.8,49.0,30.09,WNW,303,3.0,14.0,75,0.00,,FEW300,0.00,VWS V14.01,2013-06-02 13:45:00,
2013-06-02 08:49:00,57.1,49.3,30.10,NNW,330,8.0,13.0,75,0.00,,FEW150,0.00,VWS V14.01,2013-06-02 13:49:00,
2013-06-02 08:50:00,57.1,49.3,30.10,NNW,333,4.0,13.0,75,0.00,,FEW300,0.00,VWS V14.01,2013-06-02 13:50:00,
2013-06-02 08:54:00,57.2,49.0,30.09,West,280,5.0,12.0,74,0.00,,FEW150,0.00,VWS V14.01,2013-06-02 13:54:00,
2013-06-02 08:55:00,57.3,49.1,30.09,NNE,33,9.0,12.0,74,0.00,,FEW300,0.00,VWS V14.01,2013-06-02 13:55:00,
2013-06-02 08:59:00,57.3,49.1,30.09,NNW,331,6.0,10.0,74,0.00,,FEW150,0.00,VWS V14.01,2013-06-02 13:59:00,
2013-06-02 09:00:00,57.4,49.2,30.09,NW,310,10.0,13.0,74,0.00,,FEW300,0.00,VWS V14.01,2013-06-02 14:00:00,
2013-06-02 09:04:00,57.6,49.4,30.09,NNW,345,6.0,11.0,74,0.00,,FEW150,0.00,VWS V14.01,2013-06-02 14:04:00,
2013-06-02 09:05:00,57.7,49.1,30.09,NW,325,10.0,12.0,73,0.00,,FEW300,0.00,VWS V14.01,2013-06-02 14:05:00,
2013-06-02 09:09:00,57.7,48.8,30.09,NNW,338,7.0,10.0,72,0.00,,FEW150,0.00,VWS V14.01,2013-06-02 14:09:00,
2013-06-02 09:10:00,57.8,48.8,30.09,North,349,6.0,10.0,72,0.00,,FEW300,0.00,VWS V14.01,2013-06-02 14:10:00,
2013-06-02 09:14:00,58.0,49.0,30.09,West,267,8.0,12.0,72,0.00,,FEW150,0.00,VWS V14.01,2013-06-02 14:14:00,
2013-06-02 09:15:00,58.0,49.0,30.09,NW,321,9.0,12.0,72,0.00,,FEW300,0.00,VWS V14.01,2013-06-02 14:15:00,
2013-06-02 09:19:00,58.5,50.2,30.10,NW,319,5.0,11.0,74,0.00,,FEW150,0.00,VWS V14.01,2013-06-02 14:19:00,
2013-06-02 09:20:00,58.5,49.1,30.09,NW,311,9.0,14.0,71,0.00,,FEW300,0.00,VWS V14.01,2013-06-02 14:20:00,
2013-06-02 09:24:00,58.4,49.4,30.09,NW,309,5.0,12.0,72,0.00,,FEW150,0.00,VWS V14.01,2013-06-02 14:24:00,
2013-06-02 09:25:00,58.6,49.2,30.09,NNW,340,6.0,12.0,71,0.00,,FEW300,0.00,VWS V14.01,2013-06-02 14:25:00,
2013-06-02 09:29:00,58.4,49.0,30.09,NNE,20,4.0,14.0,71,0.00,,FEW150,0.00,VWS V14.01,2013-06-02 14:29:00,
2013-06-02 09:30:00,58.5,49.1,30.10,North,352,9.0,14.0,71,0.00,,FEW300,0.00,VWS V14.01,2013-06-02 14:30:00,
2013-06-02 09:34:00,58.6,49.2,30.09,North,354,2.0,13.0,71,0.00,,FEW020,0.00,VWS V14.01,2013-06-02 14:34:00,
2013-06-02 09:35:00,58.7,49.0,30.10,North,349,9.0,15.0,70,0.00,,FEW300,0.00,VWS V14.01,2013-06-02 14:35:00,
2013-06-02 09:39:00,58.8,49.0,30.10,NW,311,13.0,13.0,70,0.00,,FEW020,0.00,VWS V14.01,2013-06-02 14:39:00,
2013-06-02 09:40:00,58.8,49.0,30.10,North,8,6.0,13.0,70,0.00,,FEW300,0.00,VWS V14.01,2013-06-02 14:40:00,
2013-06-02 09:44:00,58.7,49.3,30.10,West,274,3.0,11.0,71,0.00,,FEW020,0.00,VWS V14.01,2013-06-02 14:44:00,
2013-06-02 09:45:00,58.9,49.2,30.10,NE,41,8.0,11.0,70,0.00,,FEW300,0.00,VWS V14.01,2013-06-02 14:45:00,
2013-06-02 09:49:00,59.3,49.9,30.10,NNE,25,2.0,8.0,71,0.00,,FEW020,0.00,VWS V14.01,2013-06-02 14:49:00,
2013-06-02 09:50:00,59.6,50.2,30.10,NNW,346,4.0,9.0,71,0.00,,FEW300,0.00,VWS V14.01,2013-06-02 14:50:00,
2013-06-02 09:54:00,59.7,49.5,30.10,NW,307,5.0,11.0,69,0.00,,FEW020,0.00,VWS V14.01,2013-06-02 14:54:00,
2013-06-02 09:55:00,59.7,49.1,30.10,WNW,302,5.0,14.0,68,0.00,,FEW300,0.00,VWS V14.01,2013-06-02 14:55:00,
2013-06-02 09:59:00,59.5,48.9,30.10,ENE,60,4.0,16.0,68,0.00,,FEW020,0.00,VWS V14.01,2013-06-02 14:59:00,
2013-06-02 10:00:00,59.7,49.5,30.10,SE,139,2.0,16.0,69,0.00,,FEW300,0.00,VWS V14.01,2013-06-02 15:00:00,
2013-06-02 10:04:00,60.4,49.4,30.10,NE,39,8.0,10.0,67,0.00,,FEW020,0.00,VWS V14.01,2013-06-02 15:04:00,
2013-06-02 10:05:00,60.4,49.4,30.10,North,9,9.0,11.0,67,0.00,,FEW300,0.00,VWS V14.01,2013-06-02 15:05:00,
2013-06-02 10:09:00,60.3,49.7,30.10,NNW,345,3.0,11.0,68,0.00,,FEW020,0.00,VWS V14.01,2013-06-02 15:09:00,
2013-06-02 10:10:00,60.3,49.7,30.10,NNW,338,3.0,11.0,68,0.00,,FEW300,0.00,VWS V14.01,2013-06-02 15:10:00,
2013-06-02 10:14:00,60.6,50.0,30.10,NNW,335,7.0,13.0,68,0.00,,FEW020,0.00,VWS V14.01,2013-06-02 15:14:00,
2013-06-02 10:15:00,60.6,49.6,30.10,West,271,3.0,13.0,67,0.00,,FEW300,0.00,VWS V14.01,2013-06-02 15:15:00,
2013-06-02 10:19:00,60.8,49.8,30.10,NE,45,3.0,11.0,67,0.00,,FEW020,0.00,VWS V14.01,2013-06-02 15:19:00,
2013-06-02 10:20:00,60.9,49.9,30.09,NNW,328,5.0,11.0,67,0.00,,FEW300,0.00,VWS V14.01,2013-06-02 15:20:00,
2013-06-02 10:24:00,61.3,50.3,30.10,NNW,338,2.0,10.0,67,0.00,,FEW020,0.00,VWS V14.01,2013-06-02 15:24:00,
2013-06-02 10:25:00,61.5,50.0,30.10,NNW,330,6.0,15.0,66,0.00,,FEW300,0.00,VWS V14.01,2013-06-02 15:25:00,
2013-06-02 10:29:00,61.5,50.0,30.10,NW,316,9.0,13.0,66,0.00,,FEW020,0.00,VWS V14.01,2013-06-02 15:29:00,
2013-06-02 10:30:00,61.4,50.0,30.10,WNW,295,7.0,13.0,66,0.00,,FEW300,0.00,VWS V14.01,2013-06-02 15:30:00,
2013-06-02 10:34:00,61.5,49.2,30.10,NNE,13,5.0,12.0,64,0.00,,FEW020,0.00,VWS V14.01,2013-06-02 15:34:00,
2013-06-02 10:35:00,61.6,49.7,30.10,NNE,12,5.0,12.0,65,0.00,,FEW300,0.00,VWS V14.01,2013-06-02 15:35:00,
2013-06-02 10:39:00,61.6,49.3,30.10,NE,41,6.0,13.0,64,0.00,,FEW020,0.00,VWS V14.01,2013-06-02 15:39:00,
2013-06-02 10:40:00,61.7,49.4,30.10,West,274,4.0,13.0,64,0.00,,FEW300,0.00,VWS V14.01,2013-06-02 15:40:00,
2013-06-02 10:44:00,62.1,49.4,30.10,NNE,25,6.0,9.0,63,0.00,,FEW020,0.00,VWS V14.01,2013-06-02 15:44:00,
2013-06-02 10:45:00,62.1,48.5,30.10,NNW,330,7.0,11.0,61,0.00,,FEW300,0.00,VWS V14.01,2013-06-02 15:45:00,
2013-06-02 10:49:00,62.1,49.4,30.10,NW,316,7.0,10.0,63,0.00,,FEW020,0.00,VWS V14.01,2013-06-02 15:49:00,
2013-06-02 10:50:00,62.1,48.5,30.10,NNW,333,7.0,13.0,61,0.00,,FEW300,0.00,VWS V14.01,2013-06-02 15:50:00,
2013-06-02 10:54:00,61.7,48.6,30.10,NW,320,9.0,11.0,62,0.00,,FEW020,0.00,VWS V14.01,2013-06-02 15:54:00,
2013-06-02 10:55:00,61.7,48.6,30.10,NNW,328,4.0,11.0,62,0.00,,FEW300,0.00,VWS V14.01,2013-06-02 15:55:00,
2013-06-02 10:59:00,62.3,49.1,30.10,NW,323,7.0,12.0,62,0.00,,FEW020,0.00,VWS V14.01,2013-06-02 15:59:00,
2013-06-02 11:00:00,62.4,49.2,30.10,North,8,5.0,12.0,62,0.00,,FEW300,0.00,VWS V14.01,2013-06-02 16:00:00,
2013-06-02 11:04:00,62.6,49.8,30.10,North,359,3.0,9.0,63,0.00,,FEW020,0.00,VWS V14.01,2013-06-02 16:04:00,
2013-06-02 11:05:00,62.7,49.5,30.10,NW,315,4.0,9.0,62,0.00,,FEW300,0.00,VWS V14.01,2013-06-02 16:05:00,
2013-06-02 11:09:00,62.9,48.8,30.10,NNW,336,2.0,9.0,60,0.00,,FEW020,0.00,VWS V14.01,2013-06-02 16:09:00,
2013-06-02 11:10:00,62.8,48.7,30.10,NNE,27,8.0,9.0,60,0.00,,FEW300,0.00,VWS V14.01,2013-06-02 16:10:00,
2013-06-02 11:14:00,62.9,50.1,30.10,SE,139,2.0,11.0,63,0.00,,FEW020,0.00,VWS V14.01,2013-06-02 16:14:00,
2013-06-02 11:15:00,63.2,49.5,30.10,NE,54,10.0,11.0,61,0.00,,FEW300,0.00,VWS V14.01,2013-06-02 16:15:00,
2013-06-02 11:19:00,62.9,47.9,30.10,NNE,22,5.0,12.0,58,0.00,,FEW020,0.00,VWS V14.01,2013-06-02 16:19:00,
2013-06-02 11:20:00,62.9,48.8,30.10,NE,53,4.0,12.0,60,0.00,,FEW300,0.00,VWS V14.01,2013-06-02 16:20:00,
2013-06-02 11:24:00,63.2,49.1,30.10,NNW,330,7.0,15.0,60,0.00,,FEW020,0.00,VWS V14.01,2013-06-02 16:24:00,
2013-06-02 11:25:00,63.3,48.7,30.10,NNW,333,6.0,15.0,59,0.00,,FEW300,0.00,VWS V14.01,2013-06-02 16:25:00,
2013-06-02 11:29:00,63.2,48.7,30.10,North,9,3.0,11.0,59,0.00,,FEW020,0.00,VWS V14.01,2013-06-02 16:29:00,
2013-06-02 11:30:00,63.2,48.7,30.10,NNW,345,8.0,13.0,59,0.00,,FEW300,0.00,VWS V14.01,2013-06-02 16:30:00,
2013-06-02 11:34:00,63.1,48.1,30.10,NW,314,10.0,13.0,58,0.00,,FEW030,0.00,VWS V14.01,2013-06-02 16:34:00,
2013-06-02 11:35:00,63.1,48.6,30.10,North,4,8.0,14.0,59,0.00,,FEW300,0.00,VWS V14.01,2013-06-02 16:35:00,
2013-06-02 11:39:00,63.3,48.7,30.10,NW,319,6.0,13.0,59,0.00,,FEW030,0.00,VWS V14.01,2013-06-02 16:39:00,
2013-06-02 11:40:00,63.5,48.0,30.10,NW,322,13.0,13.0,57,0.00,,FEW300,0.00,VWS V14.01,2013-06-02 16:40:00,
2013-06-02 11:44:00,63.3,48.3,30.10,NW,315,4.0,13.0,58,0.00,,FEW030,0.00,VWS V14.01,2013-06-02 16:44:00,
2013-06-02 11:45:00,63.3,48.3,30.10,NW,326,4.0,13.0,58,0.00,,FEW300,0.00,VWS V14.01,2013-06-02 16:45:00,
2013-06-02 11:49:00,63.5,48.9,30.10,NW,323,3.0,12.0,59,0.00,,FEW030,0.00,VWS V14.01,2013-06-02 16:49:00,
2013-06-02 11:50:00,63.7,49.1,30.10,NW,326,2.0,12.0,59,0.00,,FEW300,0.00,VWS V14.01,2013-06-02 16:50:00,
2013-06-02 11:54:00,64.0,48.5,30.10,North,353,3.0,15.0,57,0.00,,FEW030,0.00,VWS V14.01,2013-06-02 16:54:00,
2013-06-02 11:55:00,64.0,48.9,30.09,NW,319,1.0,15.0,58,0.00,,FEW300,0.00,VWS V14.01,2013-06-02 16:55:00,
2013-06-02 11:59:00,64.3,49.2,30.09,NNW,340,8.0,9.0,58,0.00,,FEW030,0.00,VWS V14.01,2013-06-02 16:59:00,
2013-06-02 12:00:00,64.5,49.4,30.09,North,360,3.0,9.0,58,0.00,,FEW300,0.00,VWS V14.01,2013-06-02 17:00:00,
2013-06-02 12:04:00,65.0,50.3,30.09,ENE,76,5.0,10.0,59,0.00,,FEW030,0.00,VWS V14.01,2013-06-02 17:04:00,
2013-06-02 12:05:00,65.3,49.7,30.09,NNW,335,6.0,10.0,57,0.00,,FEW300,0.00,VWS V14.01,2013-06-02 17:05:00,
2013-06-02 12:09:00,65.1,48.5,30.09,NNW,342,3.0,12.0,55,0.00,,FEW030,0.00,VWS V14.01,2013-06-02 17:09:00,
2013-06-02 12:10:00,64.9,47.9,30.09,NW,315,7.0,12.0,54,0.00,,FEW300,0.00,VWS V14.01,2013-06-02 17:10:00,
2013-06-02 12:14:00,64.7,48.2,30.09,North,1,10.0,11.0,55,0.00,,FEW030,0.00,VWS V14.01,2013-06-02 17:14:00,
2013-06-02 12:15:00,64.6,48.1,30.09,NNW,330,6.0,12.0,55,0.00,,FEW300,0.00,VWS V14.01,2013-06-02 17:15:00,
2013-06-02 12:19:00,64.4,49.3,30.09,NNE,13,3.0,11.0,58,0.00,,FEW030,0.00,VWS V14.01,2013-06-02 17:19:00,
2013-06-02 12:20:00,64.6,49.0,30.09,NNE,27,2.0,11.0,57,0.00,,FEW300,0.00,VWS V14.01,2013-06-02 17:20:00,
2013-06-02 12:24:00,65.2,49.6,30.09,NNE,25,2.0,9.0,57,0.00,,FEW030,0.00,VWS V14.01,2013-06-02 17:24:00,
2013-06-02 12:25:00,65.6,50.9,30.09,NNW,329,4.0,9.0,59,0.00,,FEW300,0.00,VWS V14.01,2013-06-02 17:25:00,
2013-06-02 12:29:00,66.2,48.6,30.09,North,359,3.0,7.0,53,0.00,,FEW030,0.00,VWS V14.01,2013-06-02 17:29:00,
2013-06-02 12:30:00,66.2,48.6,30.09,North,9,4.0,9.0,53,0.00,,FEW300,0.00,VWS V14.01,2013-06-02 17:30:00,
2013-06-02 12:34:00,66.2,49.1,30.09,NW,325,7.0,9.0,54,0.00,,SCT250,0.00,VWS V14.01,2013-06-02 17:34:00,
2013-06-02 12:35:00,66.0,48.4,30.09,NNW,336,4.0,12.0,53,0.00,,FEW300,0.00,VWS V14.01,2013-06-02 17:35:00,
2013-06-02 12:39:00,65.6,48.0,30.09,NNW,330,4.0,11.0,53,0.00,,SCT250,0.00,VWS V14.01,2013-06-02 17:39:00,
2013-06-02 12:40:00,65.5,47.9,30.09,ENE,75,6.0,12.0,53,0.00,,FEW300,0.00,VWS V14.01,2013-06-02 17:40:00,
2013-06-02 12:44:00,65.6,50.0,30.09,NW,326,5.0,9.0,57,0.00,,SCT250,0.00,VWS V14.01,2013-06-02 17:44:00,
2013-06-02 12:45:00,65.6,48.0,30.09,NNW,338,5.0,10.0,53,0.00,,FEW300,0.00,VWS V14.01,2013-06-02 17:45:00,
2013-06-02 12:49:00,65.4,47.3,30.09,WNW,301,4.0,14.0,52,0.00,,SCT250,0.00,VWS V14.01,2013-06-02 17:49:00,
2013-06-02 12:50:00,65.5,48.4,30.09,NNW,335,2.0,14.0,54,0.00,,FEW300,0.00,VWS V14.01,2013-06-02 17:50:00,
2013-06-02 12:54:00,66.2,50.1,30.09,North,352,3.0,8.0,56,0.00,,SCT250,0.00,VWS V14.01,2013-06-02 17:54:00,
2013-06-02 12:55:00,66.3,49.2,30.09,North,6,6.0,10.0,54,0.00,,FEW300,0.00,VWS V14.01,2013-06-02 17:55:00,
2013-06-02 12:59:00,66.0,48.9,30.08,NW,316,3.0,9.0,54,0.00,,SCT250,0.00,VWS V14.01,2013-06-02 17:59:00,
2013-06-02 13:00:00,66.0,49.9,30.08,NNW,340,9.0,9.0,56,0.00,,FEW300,0.00,VWS V14.01,2013-06-02 18:00:00,
2013-06-02 13:04:00,66.4,49.3,30.08,North,354,4.0,12.0,54,0.00,,SCT250,0.00,VWS V14.01,2013-06-02 18:04:00,
2013-06-02 13:05:00,66.5,49.4,30.08,NW,318,4.0,12.0,54,0.00,,FEW300,0.00,VWS V14.01,2013-06-02 18:05:00,
2013-06-02 13:09:00,66.5,48.9,30.08,NW,322,7.0,9.0,53,0.00,,SCT250,0.00,VWS V14.01,2013-06-02 18:09:00,
2013-06-02 13:10:00,66.3,49.2,30.08,North,6,3.0,9.0,54,0.00,,FEW300,0.00,VWS V14.01,2013-06-02 18:10:00,
2013-06-02 13:14:00,66.5,48.9,30.08,NNW,335,2.0,8.0,53,0.00,,SCT250,0.00,VWS V14.01,2013-06-02 18:14:00,
2013-06-02 13:15:00,66.8,49.6,30.08,NNW,330,6.0,8.0,54,0.00,,FEW300,0.00,VWS V14.01,2013-06-02 18:15:00,
2013-06-02 13:19:00,66.6,47.9,30.08,WNW,300,5.0,9.0,51,0.00,,SCT250,0.00,VWS V14.01,2013-06-02 18:19:00,
2013-06-02 13:20:00,66.6,49.5,30.08,NW,314,4.0,9.0,54,0.00,,FEW300,0.00,VWS V14.01,2013-06-02 18:20:00,
2013-06-02 13:24:00,66.9,49.2,30.08,East,87,2.0,6.0,53,0.00,,SCT250,0.00,VWS V14.01,2013-06-02 18:24:00,
2013-06-02 13:25:00,67.1,49.4,30.08,NE,39,3.0,8.0,53,0.00,,FEW300,0.00,VWS V14.01,2013-06-02 18:25:00,
2013-06-02 13:29:00,67.6,49.9,30.08,North,8,5.0,7.0,53,0.00,,SCT250,0.00,VWS V14.01,2013-06-02 18:29:00,
2013-06-02 13:30:00,67.8,50.6,30.08,North,10,1.0,7.0,54,0.00,,FEW300,0.00,VWS V14.01,2013-06-02 18:30:00,
2013-06-02 13:34:00,67.7,50.5,30.07,WSW,253,2.0,7.0,54,0.00,,SCT250,0.00,VWS V14.01,2013-06-02 18:34:00,
2013-06-02 13:35:00,67.8,48.5,30.07,NNW,331,2.0,10.0,50,0.00,,FEW300,0.00,VWS V14.01,2013-06-02 18:35:00,
2013-06-02 13:39:00,67.4,48.7,30.07,NE,44,7.0,8.0,51,0.00,,SCT250,0.00,VWS V14.01,2013-06-02 18:39:00,
2013-06-02 13:40:00,67.2,48.5,30.07,NNW,338,5.0,8.0,51,0.00,,FEW300,0.00,VWS V14.01,2013-06-02 18:40:00,
2013-06-02 13:44:00,67.2,48.5,30.07,NNW,338,4.0,12.0,51,0.00,,SCT250,0.00,VWS V14.01,2013-06-02 18:44:00,
2013-06-02 13:45:00,67.2,48.5,30.07,NE,46,4.0,12.0,51,0.00,,FEW300,0.00,VWS V14.01,2013-06-02 18:45:00,
2013-06-02 13:49:00,67.4,49.2,30.07,NNW,338,5.0,8.0,52,0.00,,SCT250,0.00,VWS V14.01,2013-06-02 18:49:00,
2013-06-02 13:50:00,67.5,49.3,30.07,NNW,343,1.0,8.0,52,0.00,,FEW300,0.00,VWS V14.01,2013-06-02 18:50:00,
2013-06-02 13:54:00,67.8,50.1,30.06,NW,316,3.0,7.0,53,0.00,,SCT250,0.00,VWS V14.01,2013-06-02 18:54:00,
2013-06-02 13:55:00,67.8,50.1,30.06,NE,44,2.0,7.0,53,0.00,,FEW300,0.00,VWS V14.01,2013-06-02 18:55:00,
2013-06-02 13:59:00,68.3,48.4,30.06,NW,317,4.0,9.0,49,0.00,,SCT250,0.00,VWS V14.01,2013-06-02 18:59:00,
2013-06-02 14:00:00,68.0,48.7,30.06,North,11,7.0,13.0,50,0.00,,FEW300,0.00,VWS V14.01,2013-06-02 19:00:00,
2013-06-02 14:04:00,67.9,49.7,30.06,NW,316,1.0,9.0,52,0.00,,SCT250,0.00,VWS V14.01,2013-06-02 19:04:00,
2013-06-02 14:05:00,67.9,49.1,30.06,NW,326,6.0,9.0,51,0.00,,FEW300,0.00,VWS V14.01,2013-06-02 19:05:00,
2013-06-02 14:09:00,67.9,49.1,30.06,NE,56,7.0,9.0,51,0.00,,SCT250,0.00,VWS V14.01,2013-06-02 19:09:00,
2013-06-02 14:10:00,67.9,48.6,30.06,NE,53,4.0,9.0,50,0.00,,FEW300,0.00,VWS V14.01,2013-06-02 19:10:00,
2013-06-02 14:14:00,68.0,49.2,30.05,North,349,6.0,8.0,51,0.00,,SCT250,0.00,VWS V14.01,2013-06-02 19:14:00,
2013-06-02 14:15:00,68.0,49.7,30.05,NNW,345,4.0,8.0,52,0.00,,FEW300,0.00,VWS V14.01,2013-06-02 19:15:00,
2013-06-02 14:19:00,68.0,49.2,30.05,NNW,345,5.0,10.0,51,0.00,,SCT250,0.00,VWS V14.01,2013-06-02 19:19:00,
2013-06-02 14:20:00,68.1,48.2,30.05,NNW,347,8.0,10.0,49,0.00,,FEW300,0.00,VWS V14.01,2013-06-02 19:20:00,
2013-06-02 14:24:00,68.3,48.4,30.05,NNW,331,1.0,8.0,49,0.00,,SCT250,0.00,VWS V14.01,2013-06-02 19:24:00,
2013-06-02 14:25:00,68.7,49.9,30.05,NNW,347,4.0,8.0,51,0.00,,FEW300,0.00,VWS V14.01,2013-06-02 19:25:00,
2013-06-02 14:29:00,68.7,48.8,30.05,NNW,336,3.0,7.0,49,0.00,,SCT250,0.00,VWS V14.01,2013-06-02 19:29:00,
2013-06-02 14:30:00,68.9,50.0,30.05,North,8,2.0,7.0,51,0.00,,FEW300,0.00,VWS V14.01,2013-06-02 19:30:00,
2013-06-02 14:34:00,69.1,48.6,30.05,NW,311,6.0,6.0,48,0.00,,FEW250,0.00,VWS V14.01,2013-06-02 19:34:00,
2013-06-02 14:35:00,68.9,48.4,30.05,NW,307,4.0,6.0,48,0.00,,FEW300,0.00,VWS V14.01,2013-06-02 19:35:00,
2013-06-02 14:38:00,68.7,48.2,30.05,North,8,3.0,9.0,48,0.00,,FEW250,0.00,VWS V14.01,2013-06-02 19:38:00,
2013-06-02 14:40:00,69.0,49.6,30.05,WNW,283,3.0,9.0,50,0.00,,FEW300,0.00,VWS V14.01,2013-06-02 19:40:00,
2013-06-02 14:43:00,69.1,50.2,30.05,NNW,328,1.0,10.0,51,0.00,,FEW250,0.00,VWS V14.01,2013-06-02 19:43:00,
2013-06-02 14:45:00,69.2,49.2,30.04,NW,318,1.0,10.0,49,0.00,,FEW300,0.00,VWS V14.01,2013-06-02 19:45:00,
2013-06-02 14:48:00,69.1,50.8,30.04,North,5,3.0,6.0,52,0.00,,FEW250,0.00,VWS V14.01,2013-06-02 19:48:00,
2013-06-02 14:50:00,69.3,49.9,30.04,NW,323,8.0,8.0,50,0.00,,FEW300,0.00,VWS V14.01,2013-06-02 19:50:00,
2013-06-02 14:53:00,69.0,49.1,30.04,NW,316,4.0,8.0,49,0.00,,FEW250,0.00,VWS V14.01,2013-06-02 19:53:00,
2013-06-02 14:55:00,69.0,49.6,30.04,East,101,4.0,8.0,50,0.00,,FEW300,0.00,VWS V14.01,2013-06-02 19:55:00,
2013-06-02 14:58:00,68.9,50.0,30.04,NNW,345,3.0,9.0,51,0.00,,FEW250,0.00,VWS V14.01,2013-06-02 19:58:00,
2013-06-02 15:00:00,69.0,50.1,30.04,NNW,338,3.0,9.0,51,0.00,,FEW300,0.00,VWS V14.01,2013-06-02 20:00:00,
2013-06-02 15:03:00,69.4,50.0,30.04,NW,318,2.0,6.0,50,0.00,,FEW250,0.00,VWS V14.01,2013-06-02 20:03:00,
2013-06-02 15:05:00,69.7,49.7,30.04,North,11,4.0,7.0,49,0.00,,FEW300,0.00,VWS V14.01,2013-06-02 20:05:00,
2013-06-02 15:08:00,69.9,49.9,30.04,WNW,300,4.0,10.0,49,0.00,,FEW250,0.00,VWS V14.01,2013-06-02 20:08:00,
2013-06-02 15:10:00,69.6,49.1,30.04,North,10,1.0,10.0,48,0.00,,FEW300,0.00,VWS V14.01,2013-06-02 20:10:00,
2013-06-02 15:13:00,69.5,49.5,30.03,North,5,2.0,3.0,49,0.00,,FEW250,0.00,VWS V14.01,2013-06-02 20:13:00,
2013-06-02 15:15:00,69.5,48.4,30.03,North,352,2.0,4.0,47,0.00,,FEW300,0.00,VWS V14.01,2013-06-02 20:15:00,
2013-06-02 15:18:00,69.8,50.3,30.03,West,271,0.0,4.0,50,0.00,,FEW250,0.00,VWS V14.01,2013-06-02 20:18:00,
2013-06-02 15:20:00,70.2,50.2,30.03,NNW,331,5.0,10.0,49,0.00,,FEW300,0.00,VWS V14.01,2013-06-02 20:20:00,
2013-06-02 15:23:00,70.1,50.1,30.03,North,8,4.0,7.0,49,0.00,,FEW250,0.00,VWS V14.01,2013-06-02 20:23:00,
2013-06-02 15:25:00,70.0,49.4,30.03,NW,322,1.0,7.0,48,0.00,,FEW300,0.00,VWS V14.01,2013-06-02 20:25:00,
2013-06-02 15:28:00,70.0,50.5,30.03,NW,315,2.0,6.0,50,0.00,,FEW250,0.00,VWS V14.01,2013-06-02 20:28:00,
2013-06-02 15:30:00,70.2,47.9,30.03,NW,304,4.0,6.0,45,0.00,,FEW300,0.00,VWS V14.01,2013-06-02 20:30:00,
2013-06-02 15:33:00,70.3,49.1,30.03,North,349,5.0,6.0,47,0.00,,FEW250,0.00,VWS V14.01,2013-06-02 20:33:00,
2013-06-02 15:35:00,70.6,49.4,30.03,NE,36,3.0,7.0,47,0.00,,FEW300,0.00,VWS V14.01,2013-06-02 20:35:00,
2013-06-02 15:38:00,70.8,49.0,30.02,NNW,340,4.0,7.0,46,0.00,,FEW250,0.00,VWS V14.01,2013-06-02 20:38:00,
2013-06-02 15:40:00,70.7,48.9,30.02,NNW,331,4.0,7.0,46,0.00,,FEW300,0.00,VWS V14.01,2013-06-02 20:40:00,
2013-06-02 15:43:00,70.2,48.5,30.02,NNW,343,2.0,8.0,46,0.00,,FEW250,0.00,VWS V14.01,2013-06-02 20:43:00,
2013-06-02 15:45:00,70.0,49.4,30.02,WNW,295,4.0,8.0,48,0.00,,FEW300,0.00,VWS V14.01,2013-06-02 20:45:00,
2013-06-02 15:48:00,70.4,50.3,30.02,NNW,330,3.0,10.0,49,0.00,,FEW250,0.00,VWS V14.01,2013-06-02 20:48:00,
2013-06-02 15:50:00,70.8,49.6,30.02,ENE,60,3.0,10.0,47,0.00,,FEW300,0.00,VWS V14.01,2013-06-02 20:50:00,
2013-06-02 15:53:00,71.1,51.0,30.02,NW,311,5.0,10.0,49,0.00,,FEW250,0.00,VWS V14.01,2013-06-02 20:53:00,
2013-06-02 15:55:00,71.2,51.1,30.02,ENE,75,4.0,10.0,49,0.00,,FEW300,0.00,VWS V14.01,2013-06-02 20:55:00,
2013-06-02 15:58:00,70.9,50.8,30.02,NE,48,2.0,6.0,49,0.00,,FEW250,0.00,VWS V14.01,2013-06-02 20:58:00,
2013-06-02 16:00:00,70.6,50.5,30.01,NE,44,3.0,8.0,49,0.00,,FEW300,0.00,VWS V14.01,2013-06-02 21:00:00,
2013-06-02 16:03:00,70.5,50.4,30.01,NE,40,2.0,5.0,49,0.00,,FEW250,0.00,VWS V14.01,2013-06-02 21:03:00,
2013-06-02 16:05:00,70.7,51.2,30.01,NNE,12,1.0,5.0,50,0.00,,FEW300,0.00,VWS V14.01,2013-06-02 21:05:00,
2013-06-02 16:08:00,71.1,52.1,30.01,NNW,338,1.0,1.0,51,0.00,,FEW250,0.00,VWS V14.01,2013-06-02 21:08:00,
2013-06-02 16:10:00,71.5,51.4,30.01,ENE,70,5.0,5.0,49,0.00,,FEW300,0.00,VWS V14.01,2013-06-02 21:10:00,
2013-06-02 16:13:00,71.3,51.2,30.00,NNE,15,2.0,6.0,49,0.00,,FEW250,0.00,VWS V14.01,2013-06-02 21:13:00,
2013-06-02 16:15:00,71.5,50.2,30.00,NNE,17,4.0,10.0,47,0.00,,FEW300,0.00,VWS V14.01,2013-06-02 21:15:00,
2013-06-02 16:18:00,71.4,49.6,30.01,NNW,340,3.0,6.0,46,0.00,,FEW250,0.00,VWS V14.01,2013-06-02 21:18:00,
2013-06-02 16:20:00,71.4,50.1,30.00,NNW,333,0.0,6.0,47,0.00,,FEW300,0.00,VWS V14.01,2013-06-02 21:20:00,
2013-06-02 16:23:00,71.3,50.6,30.00,NE,34,4.0,7.0,48,0.00,,FEW250,0.00,VWS V14.01,2013-06-02 21:23:00,
2013-06-02 16:25:00,71.2,50.0,30.00,East,100,2.0,9.0,47,0.00,,FEW300,0.00,VWS V14.01,2013-06-02 21:25:00,
2013-06-02 16:28:00,71.1,49.9,30.00,NE,50,4.0,9.0,47,0.00,,FEW250,0.00,VWS V14.01,2013-06-02 21:28:00,
2013-06-02 16:30:00,71.2,50.0,30.00,NNE,20,2.0,9.0,47,0.00,,FEW300,0.00,VWS V14.01,2013-06-02 21:30:00,
2013-06-02 16:33:00,71.0,48.6,30.00,ENE,67,1.0,6.0,45,0.00,,FEW280,0.00,VWS V14.01,2013-06-02 21:33:00,
2013-06-02 16:35:00,71.1,49.9,30.00,East,80,2.0,6.0,47,0.00,,FEW300,0.00,VWS V14.01,2013-06-02 21:35:00,
2013-06-02 16:38:00,71.0,49.2,30.00,NE,37,9.0,9.0,46,0.00,,FEW280,0.00,VWS V14.01,2013-06-02 21:38:00,
2013-06-02 16:40:00,70.9,49.1,29.99,NW,319,5.0,9.0,46,0.00,,FEW300,0.00,VWS V14.01,2013-06-02 21:40:00,
2013-06-02 16:43:00,71.0,50.3,29.99,NNE,15,2.0,6.0,48,0.00,,FEW280,0.00,VWS V14.01,2013-06-02 21:43:00,
2013-06-02 16:45:00,71.4,50.1,29.99,East,101,2.0,6.0,47,0.00,,FEW300,0.00,VWS V14.01,2013-06-02 21:45:00,
2013-06-02 16:48:00,71.5,49.7,29.99,NNW,333,1.0,4.0,46,0.00,,FEW280,0.00,VWS V14.01,2013-06-02 21:48:00,
2013-06-02 16:50:00,71.6,49.8,29.99,ENE,70,4.0,6.0,46,0.00,,FEW300,0.00,VWS V14.01,2013-06-02 21:50:00,
2013-06-02 16:53:00,71.5,49.1,29.99,NNE,32,5.0,7.0,45,0.00,,FEW280,0.00,VWS V14.01,2013-06-02 21:53:00,
2013-06-02 16:55:00,71.5,50.2,29.99,NNE,24,3.0,7.0,47,0.00,,FEW300,0.00,VWS V14.01,2013-06-02 21:55:00,
2013-06-02 16:58:00,71.8,48.1,29.99,NW,319,2.0,5.0,43,0.00,,FEW280,0.00,VWS V14.01,2013-06-02 21:58:00,
2013-06-02 17:00:00,71.9,48.2,29.99,NE,44,2.0,6.0,43,0.00,,FEW300,0.00,VWS V14.01,2013-06-02 22:00:00,
2013-06-02 17:03:00,72.2,49.7,29.99,NNW,327,2.0,5.0,45,0.00,,FEW280,0.00,VWS V14.01,2013-06-02 22:03:00,
2013-06-02 17:05:00,72.4,49.3,29.99,East,90,3.0,6.0,44,0.00,,FEW300,0.00,VWS V14.01,2013-06-02 22:05:00,
2013-06-02 17:08:00,72.3,49.2,29.98,NW,322,2.0,6.0,44,0.00,,FEW280,0.00,VWS V14.01,2013-06-02 22:08:00,
2013-06-02 17:10:00,72.2,49.1,29.98,North,354,3.0,6.0,44,0.00,,FEW300,0.00,VWS V14.01,2013-06-02 22:10:00,
2013-06-02 17:13:00,71.9,48.8,29.98,ENE,60,1.0,4.0,44,0.00,,FEW280,0.00,VWS V14.01,2013-06-02 22:13:00,
2013-06-02 17:15:00,71.8,49.9,29.98,NE,34,1.0,4.0,46,0.00,,FEW300,0.00,VWS V14.01,2013-06-02 22:15:00,
2013-06-02 17:18:00,72.0,50.1,29.98,WNW,291,3.0,5.0,46,0.00,,FEW280,0.00,VWS V14.01,2013-06-02 22:18:00,
2013-06-02 17:20:00,71.9,49.4,29.98,ENE,72,5.0,7.0,45,0.00,,FEW300,0.00,VWS V14.01,2013-06-02 22:20:00,
2013-06-02 17:23:00,71.7,50.4,29.98,NE,48,3.0,5.0,47,0.00,,FEW280,0.00,VWS V14.01,2013-06-02 22:23:00,
2013-06-02 17:25:00,71.8,49.9,29.98,NE,54,5.0,6.0,46,0.00,,FEW300,0.00,VWS V14.01,2013-06-02 22:25:00,
2013-06-02 17:28:00,71.9,50.0,29.98,ENE,65,2.0,5.0,46,0.00,,FEW280,0.00,VWS V14.01,2013-06-02 22:28:00,
2013-06-02 17:30:00,72.0,48.9,29.98,ENE,68,5.0,8.0,44,0.00,,FEW300,0.00,VWS V14.01,2013-06-02 22:30:00,
2013-06-02 17:33:00,71.6,49.2,29.98,NW,307,2.0,5.0,45,0.00,,FEW300,0.00,VWS V14.01,2013-06-02 22:33:00,
2013-06-02 17:38:00,71.5,50.2,29.98,NE,56,5.0,6.0,47,0.00,,FEW300,0.00,VWS V14.01,2013-06-02 22:38:00,
2013-06-02 17:43:00,71.4,49.6,29.98,NNE,12,2.0,2.0,46,0.00,,FEW300,0.00,VWS V14.01,2013-06-02 22:43:00,
2013-06-02 17:48:00,72.0,49.5,29.98,NW,317,2.0,5.0,45,0.00,,FEW300,0.00,VWS V14.01,2013-06-02 22:48:00,
2013-06-02 17:53:00,71.8,49.3,29.97,WNW,295,1.0,5.0,45,0.00,,FEW300,0.00,VWS V14.01,2013-06-02 22:53:00,
2013-06-02 17:58:00,71.7,51.0,29.97,NNE,20,2.0,4.0,48,0.00,,FEW300,0.00,VWS V14.01,2013-06-02 22:58:00,
2013-06-02 18:03:00,71.6,50.9,29.97,NNW,343,0.0,6.0,48,0.00,,FEW300,0.00,VWS V14.01,2013-06-02 23:03:00,
2013-06-02 18:08:00,72.1,51.3,29.97,ENE,70,1.0,3.0,48,0.00,,FEW300,0.00,VWS V14.01,2013-06-02 23:08:00,
2013-06-02 18:13:00,72.5,51.2,29.97,NE,39,4.0,5.0,47,0.00,,FEW300,0.00,VWS V14.01,2013-06-02 23:13:00,
2013-06-02 18:18:00,72.5,51.2,29.97,East,101,1.0,4.0,47,0.00,,FEW300,0.00,VWS V14.01,2013-06-02 23:18:00,
2013-06-02 18:23:00,72.2,51.4,29.96,NNE,25,0.0,3.0,48,0.00,,FEW300,0.00,VWS V14.01,2013-06-02 23:23:00,
2013-06-02 18:28:00,71.8,50.5,29.96,NNW,346,1.0,4.0,47,0.00,,FEW300,0.00,VWS V14.01,2013-06-02 23:28:00,
2013-06-02 18:33:00,71.8,51.6,29.96,ENE,77,2.0,3.0,49,0.00,,FEW300,0.00,VWS V14.01,2013-06-02 23:33:00,
2013-06-02 18:38:00,71.8,51.1,29.96,ESE,108,0.0,2.0,48,0.00,,FEW300,0.00,VWS V14.01,2013-06-02 23:38:00,
2013-06-02 18:43:00,72.0,50.7,29.96,NNW,333,1.0,2.0,47,0.00,,FEW300,0.00,VWS V14.01,2013-06-02 23:43:00,
2013-06-02 18:48:00,71.9,50.6,29.96,NE,54,1.0,4.0,47,0.00,,FEW300,0.00,VWS V14.01,2013-06-02 23:48:00,
2013-06-02 18:53:00,71.7,51.5,29.96,NE,48,4.0,4.0,49,0.00,,FEW300,0.00,VWS V14.01,2013-06-02 23:53:00,
2013-06-02 18:58:00,71.7,51.0,29.96,East,91,1.0,2.0,48,0.00,,FEW300,0.00,VWS V14.01,2013-06-02 23:58:00,
2013-06-02 19:03:00,71.8,52.2,29.96,ENE,58,0.0,0.0,50,0.00,,FEW300,0.00,VWS V14.01,2013-06-03 00:03:00,
2013-06-02 19:08:00,71.6,50.3,29.96,SE,128,3.0,5.0,47,0.00,,FEW300,0.00,VWS V14.01,2013-06-03 00:08:00,
2013-06-02 19:13:00,71.2,50.5,29.96,NE,44,1.0,3.0,48,0.00,,FEW300,0.00,VWS V14.01,2013-06-03 00:13:00,
2013-06-02 19:18:00,71.1,50.4,29.97,East,101,1.0,3.0,48,0.00,,FEW300,0.00,VWS V14.01,2013-06-03 00:18:00,
2013-06-02 19:23:00,71.0,51.5,29.97,NNE,12,1.0,3.0,50,0.00,,FEW300,0.00,VWS V14.01,2013-06-03 00:23:00,
2013-06-02 19:28:00,70.9,50.2,29.97,NNW,345,2.0,5.0,48,0.00,,FEW300,0.00,VWS V14.01,2013-06-03 00:28:00,
2013-06-02 19:33:00,70.7,50.6,29.97,NE,39,2.0,2.0,49,0.00,,FEW300,0.00,VWS V14.01,2013-06-03 00:33:00,
2013-06-02 19:38:00,70.4,49.2,29.97,NE,41,5.0,5.0,47,0.00,,FEW300,0.00,VWS V14.01,2013-06-03 00:38:00,
2013-06-02 19:43:00,70.4,49.2,29.97,NNE,23,4.0,4.0,47,0.00,,FEW300,0.00,VWS V14.01,2013-06-03 00:43:00,
2013-06-02 19:48:00,70.3,48.6,29.97,NNE,32,4.0,4.0,46,0.00,,FEW300,0.00,VWS V14.01,2013-06-03 00:48:00,
2013-06-02 19:53:00,70.2,49.0,29.97,NE,54,1.0,3.0,47,0.00,,FEW300,0.00,VWS V14.01,2013-06-03 00:53:00,
2013-06-02 19:58:00,70.1,50.1,29.97,ENE,75,0.0,2.0,49,0.00,,FEW300,0.00,VWS V14.01,2013-06-03 00:58:00,
2013-06-02 20:03:00,70.0,49.4,29.97,NNE,16,2.0,3.0,48,0.00,,FEW300,0.00,VWS V14.01,2013-06-03 01:03:00,
2013-06-02 20:08:00,69.5,49.0,29.98,NNE,12,1.0,2.0,48,0.00,,FEW300,0.00,VWS V14.01,2013-06-03 01:08:00,
2013-06-02 20:13:00,69.0,49.6,29.98,NNE,15,0.0,1.0,50,0.00,,FEW300,0.00,VWS V14.01,2013-06-03 01:13:00,
2013-06-02 20:18:00,68.4,49.6,29.98,ENE,65,0.0,0.0,51,0.00,,FEW300,0.00,VWS V14.01,2013-06-03 01:18:00,
2013-06-02 20:23:00,68.1,49.8,29.98,NE,48,1.0,1.0,52,0.00,,FEW300,0.00,VWS V14.01,2013-06-03 01:23:00,
2013-06-02 20:28:00,67.8,49.5,29.97,North,8,3.0,3.0,52,0.00,,FEW300,0.00,VWS V14.01,2013-06-03 01:28:00,
2013-06-02 20:33:00,67.6,49.9,29.97,NNW,338,0.0,0.0,53,0.00,,FEW300,0.00,VWS V14.01,2013-06-03 01:33:00,
2013-06-02 20:38:00,67.2,50.0,29.98,NNE,15,0.0,1.0,54,0.00,,FEW300,0.00,VWS V14.01,2013-06-03 01:38:00,
2013-06-02 20:42:00,66.8,50.1,29.97,NNE,15,0.0,0.0,55,0.00,,FEW300,0.00,VWS V14.01,2013-06-03 01:42:00,
2013-06-02 20:47:00,66.4,50.7,29.98,NNE,15,0.0,0.0,57,0.00,,FEW300,0.00,VWS V14.01,2013-06-03 01:47:00,
2013-06-02 20:52:00,65.9,50.7,29.97,NNE,15,0.0,0.0,58,0.00,,FEW300,0.00,VWS V14.01,2013-06-03 01:52:00,
2013-06-02 20:57:00,65.5,50.8,29.97,NNE,15,0.0,0.0,59,0.00,,FEW300,0.00,VWS V14.01,2013-06-03 01:57:00,
2013-06-02 21:02:00,65.3,51.1,29.97,NNE,25,0.0,0.0,60,0.00,,FEW300,0.00,VWS V14.01,2013-06-03 02:02:00,
2013-06-02 21:07:00,65.2,51.4,29.97,NNE,25,0.0,1.0,61,0.00,,FEW300,0.00,VWS V14.01,2013-06-03 02:07:00,
2013-06-02 21:12:00,64.9,51.2,29.97,NNE,25,0.0,0.0,61,0.00,,FEW300,0.00,VWS V14.01,2013-06-03 02:12:00,
2013-06-02 21:17:00,64.4,51.1,29.97,NNE,25,0.0,0.0,62,0.00,,FEW300,0.00,VWS V14.01,2013-06-03 02:17:00,
2013-06-02 21:22:00,63.8,51.0,29.97,NNE,25,0.0,0.0,63,0.00,,FEW300,0.00,VWS V14.01,2013-06-03 02:22:00,
2013-06-02 21:27:00,63.2,50.8,29.98,NNE,25,0.0,0.0,64,0.00,,FEW300,0.00,VWS V14.01,2013-06-03 02:27:00,
2013-06-02 21:32:00,62.8,51.3,29.98,NNE,26,0.0,0.0,66,0.00,,FEW280,0.00,VWS V14.01,2013-06-03 02:32:00,
2013-06-02 21:37:00,62.7,51.2,29.98,NNE,25,0.0,0.0,66,0.00,,FEW280,0.00,VWS V14.01,2013-06-03 02:37:00,
2013-06-02 21:42:00,62.6,51.5,29.97,NNE,25,0.0,0.0,67,0.00,,FEW280,0.00,VWS V14.01,2013-06-03 02:42:00,
2013-06-02 21:47:00,62.3,50.8,29.97,NNE,25,0.0,0.0,66,0.00,,FEW280,0.00,VWS V14.01,2013-06-03 02:47:00,
2013-06-02 21:52:00,62.1,51.0,29.97,NNE,25,0.0,0.0,67,0.00,,FEW280,0.00,VWS V14.01,2013-06-03 02:52:00,
2013-06-02 21:57:00,62.0,50.9,29.98,NNE,26,0.0,0.0,67,0.00,,FEW280,0.00,VWS V14.01,2013-06-03 02:57:00,
2013-06-02 22:02:00,61.9,50.8,29.98,NNE,27,0.0,0.0,67,0.00,,FEW280,0.00,VWS V14.01,2013-06-03 03:02:00,
2013-06-02 22:07:00,61.4,50.8,29.98,NNE,27,0.0,0.0,68,0.00,,FEW280,0.00,VWS V14.01,2013-06-03 03:07:00,
2013-06-02 22:12:00,60.8,51.0,29.98,NNE,27,0.0,0.0,70,0.00,,FEW280,0.00,VWS V14.01,2013-06-03 03:12:00,
2013-06-02 22:17:00,60.8,51.0,29.98,NNE,27,0.0,0.0,70,0.00,,FEW280,0.00,VWS V14.01,2013-06-03 03:17:00,
2013-06-02 22:22:00,60.8,51.3,29.97,NNE,27,0.0,0.0,71,0.00,,FEW280,0.00,VWS V14.01,2013-06-03 03:22:00,
2013-06-02 22:27:00,60.8,51.0,29.97,NNE,27,0.0,0.0,70,0.00,,FEW280,0.00,VWS V14.01,2013-06-03 03:27:00,
2013-06-02 22:32:00,60.4,51.3,29.97,NNE,27,0.0,0.0,72,0.00,,FEW250,0.00,VWS V14.01,2013-06-03 03:32:00,
2013-06-02 22:37:00,60.2,51.2,29.97,NNE,27,0.0,0.0,72,0.00,,FEW250,0.00,VWS V14.01,2013-06-03 03:37:00,
2013-06-02 22:42:00,59.7,50.7,29.97,NNE,27,0.0,0.0,72,0.00,,FEW250,0.00,VWS V14.01,2013-06-03 03:42:00,
2013-06-02 22:47:00,59.1,50.5,29.98,NNE,27,0.0,0.0,73,0.00,,FEW250,0.00,VWS V14.01,2013-06-03 03:47:00,
2013-06-02 22:52:00,58.7,50.8,29.98,NNE,27,0.0,0.0,75,0.00,,FEW250,0.00,VWS V14.01,2013-06-03 03:52:00,
2013-06-02 22:57:00,58.5,50.6,29.97,NNE,27,0.0,0.0,75,0.00,,FEW250,0.00,VWS V14.01,2013-06-03 03:57:00,
2013-06-02 23:01:00,58.4,50.5,29.97,NNE,27,0.0,0.0,75,0.00,,FEW250,0.00,VWS V14.01,2013-06-03 04:01:00,
2013-06-02 23:06:00,58.4,50.9,29.97,NNE,16,0.0,0.0,76,0.00,,FEW250,0.00,VWS V14.01,2013-06-03 04:06:00,
2013-06-02 23:11:00,58.4,50.9,29.97,NNE,16,0.0,0.0,76,0.00,,FEW250,0.00,VWS V14.01,2013-06-03 04:11:00,
2013-06-02 23:16:00,58.5,51.0,29.97,NNE,16,0.0,0.0,76,0.00,,FEW250,0.00,VWS V14.01,2013-06-03 04:16:00,
2013-06-02 23:21:00,58.6,51.4,29.97,WSW,250,0.0,0.0,77,0.00,,FEW250,0.00,VWS V14.01,2013-06-03 04:21:00,
2013-06-02 23:26:00,58.7,51.5,29.97,WSW,250,0.0,0.0,77,0.00,,FEW250,0.00,VWS V14.01,2013-06-03 04:26:00,
2013-06-02 23:31:00,58.8,51.6,29.97,SSW,198,0.0,0.0,77,0.00,,FEW250,0.00,VWS V14.01,2013-06-03 04:31:00,
2013-06-02 23:36:00,58.7,51.5,29.97,SSW,198,0.0,0.0,77,0.00,,CLR,0.00,VWS V14.01,2013-06-03 04:36:00,
2013-06-02 23:41:00,58.6,51.8,29.97,SSW,198,0.0,0.0,78,0.00,,CLR,0.00,VWS V14.01,2013-06-03 04:41:00,
2013-06-02 23:46:00,58.8,51.6,29.97,SE,139,1.0,2.0,77,0.00,,CLR,0.00,VWS V14.01,2013-06-03 04:46:00,
2013-06-02 23:51:00,59.1,51.9,29.97,SE,136,2.0,2.0,77,0.00,,CLR,0.00,VWS V14.01,2013-06-03 04:51:00,
2013-06-02 23:56:00,59.3,52.1,29.97,SE,139,1.0,2.0,77,0.00,,CLR,0.00,VWS V14.01,2013-06-03 04:56:00,